Soperton, GA

03:21 PM EST on دسمبر 10, 2016 (GMT -0500)
South Treutlen Co. | | Change Station

Elev 236 ft 32.32 °N, 82.60 °W | Updated 20 seconds ago

صافية
صافية
52.5 °F
Feels Like 52.5 °F
N
2.0
ريح متغير ريح from غرب
Gusts 6.0 mph

هذا اليوم
High -- | Low -- °F
--% Chance of Precip.
Yesterday
High -- | Low -- °F
Precip. -- في
الضغط 30.44 في
وضوح الرؤية 10.0 أميال
سحابات صافية
نقطة الندى 23 °F
الرطوبة 31%
Rainfall 0.00 في
عمق الثلج Not available.
7:21 AM 5:25 PM
الأحدب الأول, 86% visible
METAR KVDI 102015Z AUTO 04006KT 10SM CLR 12/M02 A3044 RMK AO2
الضغط 30.44 في
وضوح الرؤية 10.0 أميال
سحابات صافية
نقطة الندى 23 °F
الرطوبة 31%
Rainfall 0.00 في
عمق الثلج Not available.
7:21 AM 5:25 PM
الأحدب الأول, 86% visible
METAR KVDI 102015Z AUTO 04006KT 10SM CLR 12/M02 A3044 RMK AO2

10-Day Weather Forecast

Almanac

علم الفلك

Dec. 10, 2016 Rise Set
Actual Time
Civil Twilight
Nautical Twilight
Astronomical Twilight
قمر
Length Of Visible Light
طول الیوم
Tomorrow will be .
, % of the Moon is Illuminated

Today's Extremes

State Highs State Lows

Community

WunderPhotos

Upload Photos

1,956,651 photos uploaded!

WunderBlog® & News

Nearby

جودة الهواء

  جودة الهواء AQ Index Pollutant
Not available.

عمق الثلج

Station Depth Elevation

Earthquake Activity

City Distance Mag. Time & Date
Minimum magnitude displayed is 2.5.

Coastal Water Temperatures

مكان درجات الحرارة

Stations

Nearby Weather Stations

Station Location الحرارة رياح باردة نقطة الندى الرطوبة ريح Precip. Elev تحديث Type
                   

Watches & Warnings

There are currently no watches in effect.